Time;durP1;ratioP1;P1;durP2;ratioP2;P2;SDS_P1;SDS_P2;PMS_P1;PMS_P2;Temp;Humidity;BMP_temperature;BMP_pressure;BME280_temperature;BME280_humidity;BME280_pressure;Samples;Min_cycle;Max_cycle;Signal;HPM_P1;HPM_P2
2021/12/21 00:00:47;;;;;;;2.08;0.50;;;33.90;69.90;;;;;;5105875;28;20448;-79
2021/12/21 00:03:15;;;;;;;1.33;0.38;;;33.60;67.20;;;;;;5103946;28;20035;-83
2021/12/21 00:05:44;;;;;;;2.35;0.47;;;33.40;68.10;;;;;;5100589;28;20927;-82
2021/12/21 00:08:13;;;;;;;2.05;0.35;;;33.20;66.90;;;;;;5102664;28;20027;-77
2021/12/21 00:10:44;;;;;;;1.83;0.50;;;33.10;67.80;;;;;;5107367;28;20035;-77
2021/12/21 00:14:17;;;;;;;5.97;0.68;;;33.00;68.30;;;;;;5110615;28;20024;-78
2021/12/21 00:16:15;;;;;;;2.65;0.40;;;33.00;69.40;;;;;;5089363;28;20051;-82
2021/12/21 00:21:37;;;;;;;0.75;0.30;;;33.60;69.40;;;;;;5097122;28;20032;-80
2021/12/21 00:24:14;;;;;;;5.70;0.73;;;33.80;68.70;;;;;;5102122;28;20122;-80
2021/12/21 00:26:41;;;;;;;0.95;0.60;;;34.20;69.70;;;;;;5105001;28;20027;-83
2021/12/21 00:29:09;;;;;;;1.98;0.30;;;34.50;71.50;;;;;;5112416;28;20032;-80
2021/12/21 00:31:38;;;;;;;1.38;0.28;;;34.80;70.10;;;;;;5109109;28;20024;-81
2021/12/21 00:34:08;;;;;;;3.25;0.93;;;34.90;68.30;;;;;;5103963;28;20416;-80
2021/12/21 00:36:38;;;;;;;2.30;0.40;;;34.90;67.90;;;;;;5105967;28;20016;-81
2021/12/21 00:39:10;;;;;;;1.30;0.50;;;35.20;69.40;;;;;;5108277;28;20032;-82
2021/12/21 00:41:38;;;;;;;3.47;0.60;;;35.20;70.50;;;;;;5100850;28;20114;-80
2021/12/21 00:44:05;;;;;;;2.85;0.80;;;35.30;67.20;;;;;;5102392;28;20030;-79
2021/12/21 00:46:32;;;;;;;2.15;0.40;;;35.00;66.40;;;;;;5098543;28;20122;-79
2021/12/21 00:49:01;;;;;;;6.60;0.95;;;35.00;67.60;;;;;;5088168;28;20042;-78
2021/12/21 00:51:29;;;;;;;5.65;0.85;;;35.30;67.10;;;;;;5099345;28;20026;-78
2021/12/21 00:53:56;;;;;;;2.47;0.43;;;35.40;66.90;;;;;;5104431;28;20034;-78
2021/12/21 00:56:24;;;;;;;4.15;0.60;;;35.30;66.50;;;;;;5106793;27;20023;-82
2021/12/21 00:58:51;;;;;;;2.53;0.55;;;35.10;67.00;;;;;;5108206;28;20165;-80
2021/12/21 01:01:18;;;;;;;2.55;0.93;;;35.30;69.50;;;;;;5104225;27;20465;-80
2021/12/21 01:03:50;;;;;;;1.38;0.40;;;35.70;68.70;;;;;;5101594;28;20024;-80
2021/12/21 01:11:30;;;;;;;1.98;0.50;;;36.00;64.90;;;;;;5101084;28;20023;-76
2021/12/21 01:16:59;;;;;;;3.92;0.57;;;35.60;66.10;;;;;;5105121;27;20016;-80
2021/12/21 01:22:36;;;;;;;2.10;0.63;;;36.10;66.70;;;;;;5115106;27;20042;-78
2021/12/21 01:27:59;;;;;;;2.83;0.77;;;36.50;66.10;;;;;;5105096;28;20027;-76
2021/12/21 01:30:41;;;;;;;2.25;1.13;;;36.70;65.80;;;;;;5107150;27;20114;-76
2021/12/21 01:35:46;;;;;;;1.77;0.55;;;36.90;64.40;;;;;;5109666;28;20047;-76
2021/12/21 01:41:09;;;;;;;2.70;0.80;;;37.20;68.20;;;;;;5103812;27;20429;-80
2021/12/21 01:43:44;;;;;;;2.13;0.73;;;37.40;65.60;;;;;;5107643;28;20024;-80
2021/12/21 01:51:41;;;;;;;4.53;0.82;;;37.10;64.10;;;;;;5109746;28;20381;-82
2021/12/21 01:54:09;;;;;;;2.78;0.95;;;36.80;64.00;;;;;;5106020;27;20057;-82
2021/12/21 01:56:36;;;;;;;2.25;0.63;;;36.70;63.00;;;;;;5107902;28;20055;-81
2021/12/21 01:59:03;;;;;;;2.30;0.90;;;37.00;64.00;;;;;;5104946;27;20026;-82
2021/12/21 02:01:31;;;;;;;2.90;1.00;;;37.20;63.00;;;;;;5100280;27;20048;-83
2021/12/21 02:03:58;;;;;;;2.90;0.70;;;37.40;62.30;;;;;;5107936;28;20024;-81
2021/12/21 02:06:28;;;;;;;6.30;0.88;;;37.40;63.70;;;;;;5106824;28;20090;-81
2021/12/21 02:08:56;;;;;;;3.35;0.77;;;37.70;63.70;;;;;;5101379;28;20023;-82
2021/12/21 02:11:24;;;;;;;7.60;0.73;;;37.90;64.60;;;;;;5111647;28;20023;-80
2021/12/21 02:13:52;;;;;;;4.13;1.20;;;38.10;62.10;;;;;;5112344;28;20040;-82
2021/12/21 02:16:49;;;;;;;4.57;1.38;;;38.30;61.90;;;;;;5110754;28;20038;-83
2021/12/21 02:19:38;;;;;;;2.00;0.50;;;38.20;62.00;;;;;;5100057;28;20051;-80
2021/12/21 02:22:13;;;;;;;5.13;1.63;;;38.30;62.70;;;;;;5109475;28;20047;-79
2021/12/21 02:25:56;;;;;;;;;;;38.50;63.40;;;;;;5116524;28;20378;-77
2021/12/21 02:27:54;;;;;;;4.35;0.80;;;38.80;62.50;;;;;;5088633;28;19907;-80
2021/12/21 02:30:22;;;;;;;2.38;0.63;;;38.80;60.00;;;;;;5110580;28;20042;-79
2021/12/21 02:32:54;;;;;;;4.70;0.90;;;38.80;60.50;;;;;;5105483;28;20073;-80
2021/12/21 02:35:22;;;;;;;1.60;0.65;;;38.90;63.10;;;;;;5103673;28;20042;-74
2021/12/21 02:37:49;;;;;;;2.10;0.60;;;39.20;62.90;;;;;;5110320;28;20422;-77
2021/12/21 02:40:17;;;;;;;4.40;0.95;;;39.40;62.20;;;;;;5105318;28;20059;-80
2021/12/21 02:42:44;;;;;;;2.92;0.60;;;39.40;60.80;;;;;;5111217;28;20038;-80
2021/12/21 02:45:12;;;;;;;3.70;0.50;;;39.40;61.50;;;;;;5112375;28;20035;-80
2021/12/21 02:47:40;;;;;;;4.70;0.70;;;39.10;59.90;;;;;;5112176;28;20031;-79
2021/12/21 02:50:08;;;;;;;2.28;1.23;;;38.80;57.90;;;;;;5111957;28;20023;-79
2021/12/21 02:52:36;;;;;;;4.18;0.50;;;38.70;57.90;;;;;;5103664;28;20043;-79
2021/12/21 02:55:05;;;;;;;6.38;0.80;;;38.70;58.30;;;;;;5110039;28;20042;-78
2021/12/21 02:57:32;;;;;;;3.53;0.90;;;38.80;58.80;;;;;;5110335;28;20034;-80
2021/12/21 03:00:03;;;;;;;2.85;0.47;;;38.90;59.80;;;;;;5110063;28;20030;-80
2021/12/21 03:02:31;;;;;;;3.58;1.42;;;39.00;59.20;;;;;;5106660;28;20042;-79
2021/12/21 03:04:59;;;;;;;2.45;0.82;;;39.30;59.40;;;;;;5111454;28;20367;-80
2021/12/21 03:10:23;;;;;;;4.45;1.05;;;39.60;57.50;;;;;;5078823;28;20035;-75
2021/12/21 03:15:23;;;;;;;3.85;1.27;;;39.30;56.50;;;;;;5108506;28;20047;-79
2021/12/21 03:17:52;;;;;;;1.15;0.40;;;39.20;58.70;;;;;;5097156;28;20038;-80
2021/12/21 03:20:20;;;;;;;0.60;0.50;;;39.20;55.20;;;;;;5107536;28;20028;-78
2021/12/21 03:22:48;;;;;;;5.20;0.65;;;38.80;55.10;;;;;;5109605;28;20103;-79
2021/12/21 03:25:16;;;;;;;1.13;0.50;;;38.70;55.80;;;;;;5101793;28;20028;-80
2021/12/21 03:27:43;;;;;;;1.88;0.55;;;38.90;55.00;;;;;;5101531;28;20107;-79
2021/12/21 03:30:14;;;;;;;1.40;0.43;;;39.20;57.20;;;;;;5110094;28;20027;-80
2021/12/21 03:32:42;;;;;;;2.95;0.57;;;39.60;58.60;;;;;;5093227;28;20377;-80
2021/12/21 03:35:10;;;;;;;1.15;0.50;;;39.80;57.30;;;;;;5105772;28;20027;-77
2021/12/21 03:37:38;;;;;;;1.20;0.35;;;39.70;57.30;;;;;;5105397;27;20034;-79
2021/12/21 03:40:06;;;;;;;2.30;0.57;;;39.70;56.10;;;;;;5111239;28;20051;-79
2021/12/21 03:42:34;;;;;;;2.33;0.70;;;39.80;55.30;;;;;;5109526;28;20028;-79
2021/12/21 03:45:01;;;;;;;1.10;0.50;;;39.60;54.20;;;;;;5098140;28;20027;-78
2021/12/21 03:47:30;;;;;;;1.75;0.40;;;39.70;55.60;;;;;;5110971;28;20019;-78
2021/12/21 03:50:01;;;;;;;2.55;0.50;;;39.60;56.40;;;;;;5110827;28;20092;-77
2021/12/21 03:52:30;;;;;;;1.02;0.45;;;39.50;52.90;;;;;;5107877;28;20030;-79
2021/12/21 03:55:01;;;;;;;3.53;1.20;;;39.30;54.30;;;;;;5111125;28;20031;-78
2021/12/21 03:57:29;;;;;;;6.00;0.80;;;39.10;56.00;;;;;;5110915;28;20023;-79
2021/12/21 03:59:57;;;;;;;2.28;0.63;;;38.70;58.00;;;;;;5110803;28;20024;-77
2021/12/21 04:02:27;;;;;;;7.97;0.90;;;38.40;57.50;;;;;;5103884;28;20085;-76
2021/12/21 04:04:57;;;;;;;4.90;1.13;;;38.20;58.00;;;;;;5096281;28;20040;-77
2021/12/21 04:07:24;;;;;;;8.45;1.02;;;38.00;58.20;;;;;;5110374;28;20092;-76
2021/12/21 04:09:52;;;;;;;5.65;0.60;;;37.90;58.80;;;;;;5111343;28;20106;-77
2021/12/21 04:12:20;;;;;;;2.13;0.68;;;37.80;60.00;;;;;;5109318;28;20023;-77
2021/12/21 04:14:47;;;;;;;1.42;0.60;;;37.70;58.50;;;;;;5101674;28;20390;-77
2021/12/21 04:17:21;;;;;;;5.15;1.00;;;37.70;59.00;;;;;;5099346;28;20477;-79
2021/12/21 04:19:49;;;;;;;2.15;0.90;;;37.60;59.00;;;;;;5106563;28;20442;-77
2021/12/21 04:22:18;;;;;;;3.20;0.80;;;37.40;58.90;;;;;;5108562;28;20080;-79
2021/12/21 04:24:45;;;;;;;2.13;0.57;;;37.40;58.90;;;;;;5111830;28;20039;-79
2021/12/21 04:27:12;;;;;;;4.22;1.10;;;37.50;59.50;;;;;;5109957;27;20023;-79
2021/12/21 04:29:40;;;;;;;4.18;0.77;;;37.60;59.50;;;;;;5112644;27;20020;-80
2021/12/21 04:32:08;;;;;;;2.17;0.57;;;37.70;59.70;;;;;;5110871;28;20058;-80
2021/12/21 04:34:35;;;;;;;6.25;1.02;;;37.70;60.80;;;;;;5104025;28;20023;-80
2021/12/21 04:37:03;;;;;;;4.80;0.80;;;37.70;58.80;;;;;;5112695;27;20482;-80
2021/12/21 04:39:43;;;;;;;3.00;0.50;;;37.50;59.40;;;;;;5111484;27;20048;-81
2021/12/21 04:42:10;;;;;;;1.65;0.40;;;37.40;59.30;;;;;;5110146;27;20503;-80
2021/12/21 04:44:38;;;;;;;4.80;0.80;;;37.20;59.10;;;;;;5111574;28;20033;-79
2021/12/21 04:47:05;;;;;;;2.58;0.68;;;37.20;60.00;;;;;;5112898;27;20035;-77
2021/12/21 04:49:33;;;;;;;6.97;1.27;;;37.00;60.30;;;;;;5113871;27;20016;-78
2021/12/21 04:52:00;;;;;;;3.63;0.60;;;37.10;59.10;;;;;;5101865;27;20035;-80
2021/12/21 04:54:28;;;;;;;3.22;0.70;;;37.10;60.70;;;;;;5108153;27;20032;-77
2021/12/21 04:56:55;;;;;;;3.70;1.05;;;37.20;59.50;;;;;;5108689;27;20097;-78
2021/12/21 04:59:22;;;;;;;4.53;0.82;;;37.00;58.90;;;;;;5110250;28;20020;-78
2021/12/21 05:01:52;;;;;;;2.17;0.55;;;36.80;59.00;;;;;;5103806;27;20032;-78
2021/12/21 05:04:20;;;;;;;5.50;0.60;;;36.50;59.90;;;;;;5110569;28;20016;-80
2021/12/21 05:06:47;;;;;;;1.25;0.40;;;36.20;60.20;;;;;;5109359;27;20054;-81
2021/12/21 05:09:24;;;;;;;1.67;0.60;;;36.20;60.80;;;;;;5115353;28;20016;-80
2021/12/21 05:11:53;;;;;;;2.97;0.82;;;36.30;60.90;;;;;;5108994;28;20027;-78
2021/12/21 05:14:21;;;;;;;3.10;0.77;;;36.30;61.30;;;;;;5114684;28;20103;-78
2021/12/21 05:16:48;;;;;;;3.05;1.08;;;36.30;60.50;;;;;;5112703;28;20390;-80
2021/12/21 05:19:15;;;;;;;2.28;1.15;;;36.20;60.20;;;;;;5113216;28;20380;-78
2021/12/21 05:21:43;;;;;;;2.15;0.70;;;35.90;60.20;;;;;;5110269;27;20338;-79
2021/12/21 05:24:10;;;;;;;8.90;1.45;;;35.80;60.10;;;;;;5114058;27;20020;-77
2021/12/21 05:26:37;;;;;;;5.82;0.50;;;35.80;60.20;;;;;;5107533;28;20084;-82
2021/12/21 05:29:05;;;;;;;1.73;0.60;;;35.60;60.30;;;;;;5113804;28;20069;-83
2021/12/21 05:31:32;;;;;;;3.50;0.70;;;35.50;60.90;;;;;;5109146;28;20027;-80
2021/12/21 05:34:00;;;;;;;3.30;0.57;;;35.30;61.20;;;;;;5110237;28;20051;-81
2021/12/21 05:36:27;;;;;;;2.63;0.80;;;35.00;61.40;;;;;;5099091;28;20032;-79
2021/12/21 05:39:00;;;;;;;3.97;0.73;;;35.10;62.20;;;;;;5112387;28;20395;-83
2021/12/21 05:41:40;;;;;;;1.88;0.40;;;35.10;61.60;;;;;;5106195;28;20088;-82
2021/12/21 05:44:07;;;;;;;4.13;0.63;;;35.20;61.40;;;;;;5103592;28;20043;-84
2021/12/21 05:46:34;;;;;;;4.72;1.42;;;35.30;61.70;;;;;;5108650;27;20035;-79
2021/12/21 05:49:02;;;;;;;7.25;1.90;;;35.40;61.10;;;;;;5104306;28;20055;-80
2021/12/21 05:51:30;;;;;;;5.35;1.13;;;35.30;61.00;;;;;;5104054;27;20051;-78
2021/12/21 05:53:57;;;;;;;2.25;0.80;;;35.20;60.80;;;;;;5106837;28;20629;-86
2021/12/21 05:56:24;;;;;;;2.38;0.57;;;35.00;61.60;;;;;;5108994;28;20032;-80
2021/12/21 05:58:52;;;;;;;2.88;0.90;;;34.90;61.20;;;;;;5104900;28;20046;-83
2021/12/21 06:01:19;;;;;;;2.45;1.27;;;34.80;61.20;;;;;;5112512;28;20015;-85
2021/12/21 06:03:46;;;;;;;3.17;0.60;;;34.70;61.40;;;;;;5105423;28;20040;-81
2021/12/21 06:06:16;;;;;;;2.45;0.73;;;34.50;61.50;;;;;;5106732;28;20487;-84
2021/12/21 06:08:46;;;;;;;2.55;0.70;;;34.40;61.80;;;;;;5106204;28;20020;-79
2021/12/21 06:11:15;;;;;;;5.05;0.77;;;34.40;62.40;;;;;;5107703;28;20042;-83
2021/12/21 06:27:25;;;;;;;5.47;1.00;;;34.20;64.10;;;;;;5048352;28;20038;-82
2021/12/21 06:29:52;;;;;;;3.28;0.85;;;34.10;64.00;;;;;;5106948;28;20024;-81
2021/12/21 06:32:20;;;;;;;2.42;1.05;;;34.10;64.80;;;;;;5109775;28;20023;-81
2021/12/21 06:34:47;;;;;;;2.60;0.80;;;34.10;65.40;;;;;;5099278;27;20107;-85
2021/12/21 06:37:15;;;;;;;4.40;0.88;;;33.90;65.50;;;;;;5102781;28;20023;-76
2021/12/21 06:39:42;;;;;;;2.33;0.63;;;33.90;66.20;;;;;;5101497;28;20150;-81
2021/12/21 06:42:11;;;;;;;2.10;0.65;;;33.70;66.50;;;;;;5106240;28;20026;-83
2021/12/21 06:44:42;;;;;;;4.07;0.90;;;33.60;67.20;;;;;;5112813;28;20457;-81
2021/12/21 06:52:41;;;;;;;2.63;0.70;;;33.40;67.60;;;;;;5106905;28;20054;-78
2021/12/21 06:55:10;;;;;;;3.70;0.75;;;33.40;68.00;;;;;;5110143;28;20066;-78
2021/12/21 06:57:42;;;;;;;6.82;1.02;;;33.20;68.00;;;;;;5108803;28;20425;-77
2021/12/21 07:00:15;;;;;;;5.57;1.83;;;33.00;68.20;;;;;;5112083;28;20030;-77
2021/12/21 07:02:43;;;;;;;3.13;0.98;;;32.80;68.90;;;;;;5110055;28;20469;-78
2021/12/21 07:05:11;;;;;;;4.25;0.70;;;32.80;69.00;;;;;;5099857;28;20753;-77
2021/12/21 07:07:38;;;;;;;5.70;1.05;;;32.70;69.10;;;;;;5102064;28;20020;-77
2021/12/21 07:10:10;;;;;;;3.65;0.70;;;32.60;69.40;;;;;;5109659;28;20031;-77
2021/12/21 07:20:28;;;;;;;5.60;1.08;;;32.10;70.10;;;;;;5110405;28;20024;-77
2021/12/21 07:22:55;;;;;;;8.00;1.80;;;31.90;70.30;;;;;;5112927;28;20055;-78
2021/12/21 07:25:27;;;;;;;3.13;0.60;;;31.80;71.00;;;;;;5109720;28;20016;-78
2021/12/21 07:27:55;;;;;;;5.75;0.60;;;31.80;71.20;;;;;;5110700;28;20034;-78
2021/12/21 07:30:23;;;;;;;3.88;1.00;;;31.60;70.80;;;;;;5108619;28;20660;-76
2021/12/21 07:32:51;;;;;;;7.20;1.80;;;31.40;71.20;;;;;;5106850;28;20032;-78
2021/12/21 07:35:18;;;;;;;3.40;0.60;;;31.30;72.20;;;;;;5106772;28;20040;-78
2021/12/21 07:37:47;;;;;;;4.00;0.85;;;31.20;72.00;;;;;;5112097;28;20019;-77
2021/12/21 07:40:14;;;;;;;4.03;0.85;;;31.10;72.00;;;;;;5111417;28;20054;-77
2021/12/21 07:42:42;;;;;;;4.40;1.13;;;30.80;72.50;;;;;;5110170;28;20034;-78
2021/12/21 07:45:10;;;;;;;5.05;0.85;;;30.70;72.90;;;;;;5112035;28;20095;-78
2021/12/21 07:47:37;;;;;;;4.68;0.68;;;30.50;73.40;;;;;;5109839;28;20542;-77
2021/12/21 07:50:06;;;;;;;6.03;0.85;;;30.40;73.70;;;;;;5106852;28;20059;-78
2021/12/21 07:52:33;;;;;;;3.53;0.57;;;30.30;74.00;;;;;;5104288;28;20027;-77
2021/12/21 07:55:01;;;;;;;3.10;1.17;;;30.20;73.90;;;;;;5109766;28;20036;-77
2021/12/21 07:57:28;;;;;;;5.15;1.30;;;30.10;74.10;;;;;;5102532;28;20093;-76
2021/12/21 07:59:56;;;;;;;4.70;1.05;;;30.00;74.60;;;;;;5101859;28;20437;-77
2021/12/21 08:02:25;;;;;;;3.10;0.77;;;29.90;75.00;;;;;;5117442;28;20080;-76
2021/12/21 08:04:53;;;;;;;5.63;1.05;;;29.70;75.20;;;;;;5117956;28;20036;-77
2021/12/21 08:07:24;;;;;;;4.70;0.73;;;29.50;76.00;;;;;;5116578;28;20027;-77
2021/12/21 08:09:54;;;;;;;3.30;0.60;;;29.40;76.30;;;;;;5119067;28;20027;-77
2021/12/21 08:12:22;;;;;;;5.53;1.08;;;29.30;76.50;;;;;;5116951;28;20409;-78
2021/12/21 08:14:51;;;;;;;4.15;1.27;;;29.20;76.60;;;;;;5117876;28;20111;-78
2021/12/21 08:17:20;;;;;;;5.82;1.15;;;29.10;76.70;;;;;;5118011;28;20032;-79
2021/12/21 08:19:48;;;;;;;2.88;0.65;;;29.00;77.10;;;;;;5117922;27;20051;-77
2021/12/21 08:22:16;;;;;;;3.10;1.45;;;29.00;77.30;;;;;;5117409;28;20118;-78
2021/12/21 08:24:44;;;;;;;5.45;1.60;;;28.90;77.10;;;;;;5118788;28;20100;-76
2021/12/21 08:27:12;;;;;;;3.08;0.60;;;28.80;77.20;;;;;;5117477;28;20024;-77
2021/12/21 08:29:39;;;;;;;8.05;1.15;;;28.70;77.70;;;;;;5117006;28;20044;-75
2021/12/21 08:32:07;;;;;;;4.15;0.65;;;28.60;78.00;;;;;;5112724;27;20015;-76
2021/12/21 08:34:35;;;;;;;3.00;0.73;;;28.40;78.70;;;;;;5116360;27;20042;-77
2021/12/21 08:37:02;;;;;;;2.35;0.70;;;28.40;79.30;;;;;;5116729;27;20034;-78
2021/12/21 08:39:38;;;;;;;2.03;0.45;;;28.20;79.50;;;;;;5117443;27;20096;-78
2021/12/21 08:42:05;;;;;;;;;;;28.10;80.20;;;;;;5116495;27;20059;-77
2021/12/21 08:44:33;;;;;;;3.45;0.70;;;28.00;80.50;;;;;;5117917;27;19960;-77
2021/12/21 08:47:00;;;;;;;5.82;1.25;;;27.90;80.80;;;;;;5117377;27;20032;-77
2021/12/21 08:49:27;;;;;;;4.65;1.05;;;27.80;81.30;;;;;;5112617;28;20035;-77
2021/12/21 08:52:00;;;;;;;4.38;0.75;;;27.80;81.80;;;;;;5110682;27;20051;-77
2021/12/21 08:54:28;;;;;;;3.63;0.80;;;27.70;82.50;;;;;;5115108;27;20053;-76
2021/12/21 08:56:55;;;;;;;2.65;0.60;;;27.50;83.60;;;;;;5115795;27;20034;-77
2021/12/21 08:59:22;;;;;;;9.32;1.05;;;27.40;83.30;;;;;;5118613;28;20020;-78
2021/12/21 09:01:51;;;;;;;6.97;0.98;;;27.30;83.90;;;;;;5116507;27;20077;-78
2021/12/21 09:04:19;;;;;;;3.20;0.80;;;27.20;84.50;;;;;;5116651;28;20024;-77
2021/12/21 09:06:47;;;;;;;4.97;1.08;;;27.10;85.00;;;;;;5116321;28;20057;-76
2021/12/21 09:09:14;;;;;;;6.28;0.80;;;27.10;85.30;;;;;;5115297;27;20091;-77
2021/12/21 09:11:45;;;;;;;5.05;1.00;;;27.00;85.50;;;;;;5115039;27;20028;-78
2021/12/21 09:14:13;;;;;;;6.50;1.33;;;26.90;86.10;;;;;;5108313;27;20140;-78
2021/12/21 09:16:40;;;;;;;7.25;1.35;;;26.90;86.80;;;;;;5104062;28;20031;-79
2021/12/21 09:19:08;;;;;;;4.55;0.95;;;26.80;87.40;;;;;;5115210;28;20386;-77
2021/12/21 09:21:35;;;;;;;5.38;1.20;;;26.70;87.80;;;;;;5113134;28;20015;-77
2021/12/21 09:24:03;;;;;;;4.88;1.52;;;26.70;88.50;;;;;;5114320;28;20466;-77
2021/12/21 09:26:30;;;;;;;8.27;1.35;;;26.60;88.80;;;;;;5111952;28;20040;-77
2021/12/21 09:28:57;;;;;;;4.57;1.10;;;26.50;89.40;;;;;;5113214;28;20023;-76
2021/12/21 09:31:27;;;;;;;8.57;1.02;;;26.50;90.10;;;;;;5109420;28;20542;-76
2021/12/21 09:33:55;;;;;;;7.38;1.52;;;26.50;90.40;;;;;;5110190;28;20027;-77
2021/12/21 09:36:25;;;;;;;6.03;0.73;;;26.40;90.80;;;;;;5113145;27;20039;-77
2021/12/21 09:38:52;;;;;;;5.22;0.80;;;26.30;91.10;;;;;;5113498;28;20127;-77
2021/12/21 09:41:19;;;;;;;2.72;0.65;;;26.30;91.30;;;;;;5108642;28;20040;-76
2021/12/21 09:43:47;;;;;;;5.97;0.95;;;26.30;91.60;;;;;;5114528;28;20019;-77
2021/12/21 09:46:14;;;;;;;1.75;0.85;;;26.30;91.90;;;;;;5112822;28;20055;-77
2021/12/21 09:48:43;;;;;;;2.65;0.55;;;26.20;92.10;;;;;;5113600;28;20477;-77
2021/12/21 09:51:10;;;;;;;2.10;0.60;;;26.20;92.50;;;;;;5112561;28;20479;-76
2021/12/21 09:53:37;;;;;;;2.22;0.70;;;26.10;93.00;;;;;;5114550;28;20024;-76
2021/12/21 09:56:06;;;;;;;5.00;1.15;;;26.10;93.40;;;;;;5112816;28;20028;-77
2021/12/21 09:58:35;;;;;;;4.53;1.20;;;26.10;94.00;;;;;;5107198;28;20028;-78
2021/12/21 10:01:04;;;;;;;5.82;1.20;;;26.00;94.40;;;;;;5118137;27;20058;-76
2021/12/21 10:03:32;;;;;;;6.60;1.20;;;26.00;94.90;;;;;;5095407;28;20027;-77
2021/12/21 10:06:09;;;;;;;3.80;0.85;;;25.90;95.40;;;;;;5112491;28;20107;-78
2021/12/21 10:08:37;;;;;;;2.60;0.70;;;26.20;95.00;;;;;;5114831;28;20020;-77
2021/12/21 10:11:07;;;;;;;4.25;0.88;;;26.60;94.90;;;;;;5110763;28;20530;-77
2021/12/21 10:13:37;;;;;;;6.75;1.88;;;26.70;94.60;;;;;;5108544;28;20027;-77
2021/12/21 10:16:06;;;;;;;5.65;1.35;;;26.90;94.60;;;;;;5109552;28;20054;-77
2021/12/21 10:18:35;;;;;;;4.70;0.88;;;27.00;95.00;;;;;;5108421;28;20045;-77
2021/12/21 10:21:06;;;;;;;1.80;0.70;;;27.00;95.10;;;;;;5112279;28;20031;-77
2021/12/21 10:23:37;;;;;;;3.45;1.00;;;27.00;95.20;;;;;;5109457;28;20143;-78
2021/12/21 10:26:19;;;;;;;5.13;1.55;;;27.00;95.20;;;;;;5099861;27;20055;-76
2021/12/21 10:28:52;;;;;;;5.70;1.45;;;27.00;95.30;;;;;;5103798;28;20050;-76
2021/12/21 10:31:36;;;;;;;4.68;1.45;;;27.10;95.60;;;;;;5103505;27;20046;-78
2021/12/21 10:34:06;;;;;;;4.53;0.80;;;27.10;95.80;;;;;;5101481;28;20525;-76
2021/12/21 10:36:44;;;;;;;8.43;1.58;;;27.10;96.30;;;;;;5100316;28;20043;-77
2021/12/21 10:39:21;;;;;;;5.72;1.08;;;27.10;96.20;;;;;;5091806;28;20092;-76
2021/12/21 10:41:48;;;;;;;2.67;1.30;;;27.20;96.40;;;;;;5101970;27;20035;-77
2021/12/21 10:44:21;;;;;;;4.45;1.10;;;27.10;96.90;;;;;;5111151;28;20367;-76
2021/12/21 10:46:56;;;;;;;4.20;1.25;;;27.00;96.90;;;;;;5105949;28;20027;-77
2021/12/21 10:49:26;;;;;;;5.43;1.30;;;27.00;97.30;;;;;;5102327;28;20119;-77
2021/12/21 10:51:55;;;;;;;5.30;1.25;;;26.70;98.10;;;;;;5102359;28;20114;-77
2021/12/21 10:54:38;;;;;;;9.25;2.38;;;26.50;98.50;;;;;;5111787;28;20027;-76
2021/12/21 10:57:11;;;;;;;7.50;1.40;;;26.30;99.20;;;;;;5107950;28;20027;-76
2021/12/21 10:59:45;;;;;;;5.95;1.48;;;26.30;99.30;;;;;;5103647;28;20030;-76
2021/12/21 11:02:24;;;;;;;4.82;1.17;;;26.30;99.90;;;;;;5106744;27;20426;-75
2021/12/21 11:04:56;;;;;;;8.93;2.33;;;26.10;99.90;;;;;;5104965;28;20028;-76
2021/12/21 11:10:12;;;;;;;4.05;1.88;;;26.00;99.90;;;;;;5100637;28;20028;-76
2021/12/21 11:12:46;;;;;;;6.82;1.50;;;25.80;99.90;;;;;;5108160;28;20024;-76
2021/12/21 11:15:17;;;;;;;3.60;1.02;;;25.70;99.90;;;;;;5104671;28;20027;-76
2021/12/21 11:17:44;;;;;;;8.38;2.03;;;25.60;99.90;;;;;;5109098;28;20032;-75
2021/12/21 11:20:14;;;;;;;4.43;1.20;;;25.50;99.90;;;;;;5106024;28;20119;-76
2021/12/21 11:22:44;;;;;;;4.82;1.20;;;25.40;99.90;;;;;;5109199;28;20031;-77
2021/12/21 11:25:13;;;;;;;5.80;1.20;;;25.40;99.90;;;;;;5108692;27;20158;-77
2021/12/21 11:27:43;;;;;;;6.97;1.80;;;25.40;99.90;;;;;;5104191;28;20042;-76
2021/12/21 11:30:16;;;;;;;3.50;1.08;;;25.30;99.90;;;;;;5106899;28;20028;-76
2021/12/21 11:32:48;;;;;;;8.73;1.58;;;25.20;99.90;;;;;;5107719;28;20428;-75
2021/12/21 11:37:49;;;;;;;3.25;1.25;;;25.10;99.90;;;;;;5105910;28;20060;-76
2021/12/21 11:40:21;;;;;;;7.97;1.77;;;25.10;99.90;;;;;;5101654;28;20088;-77
2021/12/21 11:43:21;;;;;;;5.47;1.10;;;25.00;99.90;;;;;;5109147;28;20031;-77
2021/12/21 11:45:51;;;;;;;5.47;1.08;;;25.00;99.90;;;;;;5101728;28;20111;-76
2021/12/21 11:48:49;;;;;;;2.25;1.02;;;24.90;99.90;;;;;;5106610;27;20023;-78
2021/12/21 11:51:17;;;;;;;5.72;1.27;;;24.90;99.90;;;;;;5104683;28;20024;-77
2021/12/21 11:53:45;;;;;;;5.15;0.95;;;24.90;99.90;;;;;;5110262;28;20028;-78
2021/12/21 11:56:19;;;;;;;5.80;1.77;;;24.90;99.90;;;;;;5105671;28;20043;-77
2021/12/21 11:58:51;;;;;;;4.30;1.27;;;24.90;99.90;;;;;;5101100;28;20016;-77
2021/12/21 12:01:23;;;;;;;7.80;1.30;;;24.90;99.90;;;;;;5106302;28;20102;-77
2021/12/21 12:04:12;;;;;;;5.22;0.88;;;24.80;99.90;;;;;;5104638;28;20024;-76
2021/12/21 12:06:49;;;;;;;4.93;0.85;;;24.70;99.90;;;;;;5104108;28;20039;-77
2021/12/21 12:09:25;;;;;;;4.50;1.10;;;24.70;99.90;;;;;;5106035;28;20076;-76
2021/12/21 12:12:04;;;;;;;3.65;0.93;;;24.70;99.90;;;;;;5097973;28;20517;-76
2021/12/21 12:14:35;;;;;;;4.60;1.00;;;24.70;99.90;;;;;;5103113;28;20496;-74
2021/12/21 12:17:05;;;;;;;6.47;1.98;;;24.70;99.90;;;;;;5109229;28;20039;-77
2021/12/21 12:19:34;;;;;;;7.07;1.83;;;24.60;99.90;;;;;;5099646;28;20493;-77
2021/12/21 12:22:13;;;;;;;8.55;1.67;;;24.50;99.90;;;;;;5107750;28;20047;-74
2021/12/21 12:24:57;;;;;;;13.75;1.60;;;24.50;99.90;;;;;;5106826;28;20031;-76
2021/12/21 12:27:30;;;;;;;9.45;2.30;;;24.50;99.90;;;;;;5103968;28;20043;-75
2021/12/21 12:30:02;;;;;;;8.05;1.42;;;24.50;99.90;;;;;;5103123;28;20020;-76
2021/12/21 12:32:41;;;;;;;8.05;2.33;;;24.50;99.90;;;;;;5109244;28;20020;-75
2021/12/21 12:35:10;;;;;;;5.60;1.08;;;24.40;99.90;;;;;;5111018;28;20035;-74
2021/12/21 12:37:53;;;;;;;5.03;1.30;;;24.50;99.90;;;;;;5109768;28;20032;-75
2021/12/21 12:40:32;;;;;;;3.00;0.80;;;24.50;99.90;;;;;;5110460;28;20056;-77
2021/12/21 12:43:08;;;;;;;6.63;2.50;;;24.50;99.90;;;;;;5098484;28;20032;-76
2021/12/21 12:45:52;;;;;;;7.80;1.17;;;24.50;99.90;;;;;;5108862;28;20028;-74
2021/12/21 12:48:22;;;;;;;7.40;1.70;;;24.50;99.90;;;;;;5100048;28;20027;-75
2021/12/21 12:50:51;;;;;;;8.68;1.35;;;24.50;99.90;;;;;;5112357;28;20446;-76
2021/12/21 12:53:33;;;;;;;7.85;1.50;;;24.50;99.90;;;;;;5112903;28;20496;-76
2021/12/21 12:56:03;;;;;;;10.00;1.98;;;24.60;99.90;;;;;;5110308;27;20070;-77
2021/12/21 12:58:31;;;;;;;8.52;2.85;;;24.60;99.90;;;;;;5105841;28;20028;-75
2021/12/21 13:01:05;;;;;;;9.02;2.20;;;24.60;99.90;;;;;;5108035;28;20023;-76
2021/12/21 13:03:42;;;;;;;9.55;1.50;;;24.50;99.90;;;;;;5109219;28;20107;-75
2021/12/21 13:06:10;;;;;;;9.73;1.55;;;24.50;99.90;;;;;;5105480;28;20100;-76
2021/12/21 13:08:38;;;;;;;8.02;1.67;;;24.40;99.90;;;;;;5111952;28;20036;-76
2021/12/21 13:11:07;;;;;;;8.13;1.35;;;24.30;99.90;;;;;;5106944;28;20070;-76
2021/12/21 13:13:45;;;;;;;7.55;1.10;;;24.30;99.90;;;;;;5112727;28;20027;-76
2021/12/21 13:16:15;;;;;;;6.28;1.58;;;24.10;99.90;;;;;;5103114;28;20032;-77
2021/12/21 13:18:56;;;;;;;5.90;1.48;;;24.10;99.90;;;;;;5108230;28;20110;-75
2021/12/21 13:21:36;;;;;;;5.65;1.98;;;24.10;99.90;;;;;;5110983;28;20034;-76
2021/12/21 13:24:10;;;;;;;12.57;1.92;;;24.10;99.90;;;;;;5110109;28;20047;-76
2021/12/21 13:26:40;;;;;;;5.38;1.52;;;24.10;99.90;;;;;;5112193;28;20378;-76
2021/12/21 13:29:18;;;;;;;7.55;2.15;;;24.10;99.90;;;;;;5113146;28;20028;-75
2021/12/21 13:31:47;;;;;;;3.17;1.35;;;24.10;99.90;;;;;;5105589;28;20035;-75
2021/12/21 13:34:16;;;;;;;13.25;1.58;;;24.10;99.90;;;;;;5114826;28;20015;-75
2021/12/21 13:37:00;;;;;;;15.27;2.50;;;24.00;99.90;;;;;;5107459;28;20036;-75
2021/12/21 13:39:30;;;;;;;8.27;1.52;;;24.00;99.90;;;;;;5104529;28;20044;-74
2021/12/21 13:42:07;;;;;;;8.20;1.98;;;24.00;99.90;;;;;;5109765;28;20098;-75
2021/12/21 13:44:40;;;;;;;7.50;1.88;;;24.00;99.90;;;;;;5104904;27;20031;-75
2021/12/21 13:47:22;;;;;;;6.55;2.25;;;24.00;99.90;;;;;;5103663;28;20474;-74
2021/12/21 13:50:26;;;;;;;8.07;2.22;;;24.00;99.90;;;;;;5101546;28;20027;-75
2021/12/21 13:52:59;;;;;;;6.20;1.88;;;23.90;99.90;;;;;;5055690;28;20040;-76
2021/12/21 13:55:30;;;;;;;10.32;2.40;;;24.00;99.90;;;;;;5103565;27;20024;-76
2021/12/21 13:58:02;;;;;;;7.57;2.05;;;24.00;99.90;;;;;;5096695;28;20028;-76
2021/12/21 14:00:31;;;;;;;10.82;1.80;;;24.00;99.90;;;;;;5111840;28;20016;-76
2021/12/21 14:03:05;;;;;;;9.00;1.65;;;24.00;99.90;;;;;;5108581;28;20140;-76
2021/12/21 14:05:44;;;;;;;15.30;3.25;;;23.90;99.90;;;;;;5107341;27;20378;-75
2021/12/21 14:08:13;;;;;;;7.68;1.80;;;23.90;99.90;;;;;;5094129;28;20020;-74
2021/12/21 14:10:48;;;;;;;7.63;2.00;;;23.90;99.90;;;;;;5109195;28;20059;-75